sensor_id;sensor_type;location;lat;lon;timestamp;temperature;humidity
35363;DHT22;21463;47.480;8.214;2023-08-06T00:00:20;21.10;61.80
35363;DHT22;21463;47.480;8.214;2023-08-06T00:01:23;21.10;61.80
35363;DHT22;21463;47.480;8.214;2023-08-06T00:02:29;21.20;61.90
35363;DHT22;21463;47.480;8.214;2023-08-06T00:03:32;21.20;61.90
35363;DHT22;21463;47.480;8.214;2023-08-06T00:04:35;21.10;61.80
35363;DHT22;21463;47.480;8.214;2023-08-06T00:05:41;21.20;61.80
35363;DHT22;21463;47.480;8.214;2023-08-06T00:06:45;21.10;61.80
35363;DHT22;21463;47.480;8.214;2023-08-06T00:07:48;21.20;61.80
35363;DHT22;21463;47.480;8.214;2023-08-06T00:08:51;21.10;61.80
35363;DHT22;21463;47.480;8.214;2023-08-06T00:09:56;21.10;61.80
35363;DHT22;21463;47.480;8.214;2023-08-06T00:10:59;21.20;61.80
35363;DHT22;21463;47.480;8.214;2023-08-06T00:12:01;21.20;61.80
35363;DHT22;21463;47.480;8.214;2023-08-06T00:13:04;21.20;61.80
35363;DHT22;21463;47.480;8.214;2023-08-06T00:14:06;21.10;61.80
35363;DHT22;21463;47.480;8.214;2023-08-06T00:15:10;21.20;61.80
35363;DHT22;21463;47.480;8.214;2023-08-06T00:16:14;21.10;61.80
35363;DHT22;21463;47.480;8.214;2023-08-06T00:17:19;21.20;61.80
35363;DHT22;21463;47.480;8.214;2023-08-06T00:18:23;21.10;61.70
35363;DHT22;21463;47.480;8.214;2023-08-06T00:19:27;21.10;61.80
35363;DHT22;21463;47.480;8.214;2023-08-06T00:20:29;21.20;61.80
35363;DHT22;21463;47.480;8.214;2023-08-06T00:21:32;21.20;61.80
35363;DHT22;21463;47.480;8.214;2023-08-06T00:22:36;21.10;61.70
35363;DHT22;21463;47.480;8.214;2023-08-06T00:23:39;21.10;61.70
35363;DHT22;21463;47.480;8.214;2023-08-06T00:24:43;21.10;61.70
35363;DHT22;21463;47.480;8.214;2023-08-06T00:25:45;21.10;61.60
35363;DHT22;21463;47.480;8.214;2023-08-06T00:26:47;21.10;61.70
35363;DHT22;21463;47.480;8.214;2023-08-06T00:27:51;21.10;61.70
35363;DHT22;21463;47.480;8.214;2023-08-06T00:28:53;21.20;61.80
35363;DHT22;21463;47.480;8.214;2023-08-06T00:29:56;21.10;61.70
35363;DHT22;21463;47.480;8.214;2023-08-06T00:30:59;21.10;61.60
35363;DHT22;21463;47.480;8.214;2023-08-06T00:32:02;21.10;61.60
35363;DHT22;21463;47.480;8.214;2023-08-06T00:33:05;21.10;61.70
35363;DHT22;21463;47.480;8.214;2023-08-06T00:34:07;21.10;61.60
35363;DHT22;21463;47.480;8.214;2023-08-06T00:35:11;21.20;61.70
35363;DHT22;21463;47.480;8.214;2023-08-06T00:36:15;21.20;61.70
35363;DHT22;21463;47.480;8.214;2023-08-06T00:37:18;21.10;61.60
35363;DHT22;21463;47.480;8.214;2023-08-06T00:38:22;21.20;61.70
35363;DHT22;21463;47.480;8.214;2023-08-06T00:39:25;21.20;61.70
35363;DHT22;21463;47.480;8.214;2023-08-06T00:40:30;21.10;61.60
35363;DHT22;21463;47.480;8.214;2023-08-06T00:41:35;21.20;61.60
35363;DHT22;21463;47.480;8.214;2023-08-06T00:42:40;21.20;61.60
35363;DHT22;21463;47.480;8.214;2023-08-06T00:43:46;21.20;61.60
35363;DHT22;21463;47.480;8.214;2023-08-06T00:44:49;21.10;61.60
35363;DHT22;21463;47.480;8.214;2023-08-06T00:45:53;21.10;61.60
35363;DHT22;21463;47.480;8.214;2023-08-06T00:46:56;21.20;61.60
35363;DHT22;21463;47.480;8.214;2023-08-06T00:48:00;21.10;61.60
35363;DHT22;21463;47.480;8.214;2023-08-06T00:49:04;21.10;61.50
35363;DHT22;21463;47.480;8.214;2023-08-06T00:50:08;21.10;61.50
35363;DHT22;21463;47.480;8.214;2023-08-06T00:51:13;21.10;61.50
35363;DHT22;21463;47.480;8.214;2023-08-06T00:52:18;21.10;61.50
35363;DHT22;21463;47.480;8.214;2023-08-06T00:53:20;21.20;61.60
35363;DHT22;21463;47.480;8.214;2023-08-06T00:54:25;21.10;61.50
35363;DHT22;21463;47.480;8.214;2023-08-06T00:55:29;21.20;61.60
35363;DHT22;21463;47.480;8.214;2023-08-06T00:56:33;21.10;61.50
35363;DHT22;21463;47.480;8.214;2023-08-06T00:57:37;21.10;61.50
35363;DHT22;21463;47.480;8.214;2023-08-06T00:58:42;21.10;61.60
35363;DHT22;21463;47.480;8.214;2023-08-06T00:59:45;21.10;61.50
35363;DHT22;21463;47.480;8.214;2023-08-06T01:00:48;21.10;61.50
35363;DHT22;21463;47.480;8.214;2023-08-06T01:01:54;21.20;61.60
35363;DHT22;21463;47.480;8.214;2023-08-06T01:02:57;21.10;61.60
35363;DHT22;21463;47.480;8.214;2023-08-06T01:04:00;21.10;61.50
35363;DHT22;21463;47.480;8.214;2023-08-06T01:05:03;21.20;61.60
35363;DHT22;21463;47.480;8.214;2023-08-06T01:06:06;21.10;61.50
35363;DHT22;21463;47.480;8.214;2023-08-06T01:10:51;21.20;61.50
35363;DHT22;21463;47.480;8.214;2023-08-06T01:12:02;21.10;61.40
35363;DHT22;21463;47.480;8.214;2023-08-06T01:14:15;21.10;61.50
35363;DHT22;21463;47.480;8.214;2023-08-06T01:15:24;21.10;61.50
35363;DHT22;21463;47.480;8.214;2023-08-06T01:16:27;21.10;61.40
35363;DHT22;21463;47.480;8.214;2023-08-06T01:17:33;21.20;61.50
35363;DHT22;21463;47.480;8.214;2023-08-06T01:18:37;21.10;61.40
35363;DHT22;21463;47.480;8.214;2023-08-06T01:19:41;21.50;61.60
35363;DHT22;21463;47.480;8.214;2023-08-06T01:20:43;21.10;61.40
35363;DHT22;21463;47.480;8.214;2023-08-06T01:21:47;21.10;61.40
35363;DHT22;21463;47.480;8.214;2023-08-06T01:22:49;21.10;61.40
35363;DHT22;21463;47.480;8.214;2023-08-06T01:23:52;21.20;61.50
35363;DHT22;21463;47.480;8.214;2023-08-06T01:24:54;21.10;61.40
35363;DHT22;21463;47.480;8.214;2023-08-06T01:28:04;21.10;61.40
35363;DHT22;21463;47.480;8.214;2023-08-06T01:29:21;21.20;61.40
35363;DHT22;21463;47.480;8.214;2023-08-06T01:30:29;21.10;61.40
35363;DHT22;21463;47.480;8.214;2023-08-06T01:31:33;21.10;61.30
35363;DHT22;21463;47.480;8.214;2023-08-06T01:32:42;21.00;61.30
35363;DHT22;21463;47.480;8.214;2023-08-06T01:33:47;21.10;61.40
35363;DHT22;21463;47.480;8.214;2023-08-06T01:34:51;21.20;61.40
35363;DHT22;21463;47.480;8.214;2023-08-06T01:35:55;21.10;61.30
35363;DHT22;21463;47.480;8.214;2023-08-06T01:36:59;21.10;61.30
35363;DHT22;21463;47.480;8.214;2023-08-06T01:38:01;21.10;61.30
35363;DHT22;21463;47.480;8.214;2023-08-06T01:39:05;21.10;61.30
35363;DHT22;21463;47.480;8.214;2023-08-06T01:40:11;21.10;61.30
35363;DHT22;21463;47.480;8.214;2023-08-06T01:41:15;21.10;61.30
35363;DHT22;21463;47.480;8.214;2023-08-06T01:42:17;21.10;61.40
35363;DHT22;21463;47.480;8.214;2023-08-06T01:43:21;21.10;61.30
35363;DHT22;21463;47.480;8.214;2023-08-06T01:44:25;21.10;61.30
35363;DHT22;21463;47.480;8.214;2023-08-06T01:45:30;21.10;61.30
35363;DHT22;21463;47.480;8.214;2023-08-06T01:46:34;21.10;61.30
35363;DHT22;21463;47.480;8.214;2023-08-06T01:47:36;21.10;61.30
35363;DHT22;21463;47.480;8.214;2023-08-06T01:48:39;21.10;61.30
35363;DHT22;21463;47.480;8.214;2023-08-06T01:49:42;21.10;61.30
35363;DHT22;21463;47.480;8.214;2023-08-06T01:50:46;21.10;61.20
35363;DHT22;21463;47.480;8.214;2023-08-06T01:51:48;21.10;61.20
35363;DHT22;21463;47.480;8.214;2023-08-06T01:52:51;21.10;61.30
35363;DHT22;21463;47.480;8.214;2023-08-06T01:53:53;21.10;61.80
35363;DHT22;21463;47.480;8.214;2023-08-06T01:54:56;21.10;61.20
35363;DHT22;21463;47.480;8.214;2023-08-06T01:55:59;21.10;61.20
35363;DHT22;21463;47.480;8.214;2023-08-06T01:57:02;21.10;61.20
35363;DHT22;21463;47.480;8.214;2023-08-06T01:58:04;21.20;61.30
35363;DHT22;21463;47.480;8.214;2023-08-06T01:59:09;21.10;61.20
35363;DHT22;21463;47.480;8.214;2023-08-06T02:00:12;21.10;61.20
35363;DHT22;21463;47.480;8.214;2023-08-06T02:01:14;21.10;61.20
35363;DHT22;21463;47.480;8.214;2023-08-06T02:02:18;21.10;61.20
35363;DHT22;21463;47.480;8.214;2023-08-06T02:03:22;21.10;61.20
35363;DHT22;21463;47.480;8.214;2023-08-06T02:04:24;21.10;61.20
35363;DHT22;21463;47.480;8.214;2023-08-06T02:05:27;21.10;61.10
35363;DHT22;21463;47.480;8.214;2023-08-06T02:06:29;21.20;61.20
35363;DHT22;21463;47.480;8.214;2023-08-06T02:07:33;21.10;61.10
35363;DHT22;21463;47.480;8.214;2023-08-06T02:08:35;21.10;61.10
35363;DHT22;21463;47.480;8.214;2023-08-06T02:09:39;21.10;61.10
35363;DHT22;21463;47.480;8.214;2023-08-06T02:10:42;21.20;61.20
35363;DHT22;21463;47.480;8.214;2023-08-06T02:11:44;21.10;61.10
35363;DHT22;21463;47.480;8.214;2023-08-06T02:12:46;21.10;61.10
35363;DHT22;21463;47.480;8.214;2023-08-06T02:13:49;21.10;61.10
35363;DHT22;21463;47.480;8.214;2023-08-06T02:14:53;21.10;61.10
35363;DHT22;21463;47.480;8.214;2023-08-06T02:15:56;21.10;61.10
35363;DHT22;21463;47.480;8.214;2023-08-06T02:16:59;21.10;61.00
35363;DHT22;21463;47.480;8.214;2023-08-06T02:18:02;21.10;61.10
35363;DHT22;21463;47.480;8.214;2023-08-06T02:19:04;21.10;61.00
35363;DHT22;21463;47.480;8.214;2023-08-06T02:20:07;21.10;61.00
35363;DHT22;21463;47.480;8.214;2023-08-06T02:21:10;21.10;61.00
35363;DHT22;21463;47.480;8.214;2023-08-06T02:22:12;21.10;61.00
35363;DHT22;21463;47.480;8.214;2023-08-06T02:23:17;21.10;61.00
35363;DHT22;21463;47.480;8.214;2023-08-06T02:24:20;21.10;61.00
35363;DHT22;21463;47.480;8.214;2023-08-06T02:25:22;21.10;61.00
35363;DHT22;21463;47.480;8.214;2023-08-06T02:26:31;21.10;61.00
35363;DHT22;21463;47.480;8.214;2023-08-06T02:27:37;21.10;60.90
35363;DHT22;21463;47.480;8.214;2023-08-06T02:28:40;21.20;61.00
35363;DHT22;21463;47.480;8.214;2023-08-06T02:29:48;21.10;60.90
35363;DHT22;21463;47.480;8.214;2023-08-06T02:30:52;21.10;60.90
35363;DHT22;21463;47.480;8.214;2023-08-06T02:31:54;21.10;61.40
35363;DHT22;21463;47.480;8.214;2023-08-06T02:32:57;21.10;60.80
35363;DHT22;21463;47.480;8.214;2023-08-06T02:33:59;21.10;60.80
35363;DHT22;21463;47.480;8.214;2023-08-06T02:35:02;21.10;60.90
35363;DHT22;21463;47.480;8.214;2023-08-06T02:36:07;21.10;60.80
35363;DHT22;21463;47.480;8.214;2023-08-06T02:37:10;21.10;60.80
35363;DHT22;21463;47.480;8.214;2023-08-06T02:38:13;21.10;60.80
35363;DHT22;21463;47.480;8.214;2023-08-06T02:39:16;21.10;60.80
35363;DHT22;21463;47.480;8.214;2023-08-06T02:40:20;21.10;60.80
35363;DHT22;21463;47.480;8.214;2023-08-06T02:41:22;21.10;60.80
35363;DHT22;21463;47.480;8.214;2023-08-06T02:42:24;21.10;60.70
35363;DHT22;21463;47.480;8.214;2023-08-06T02:43:28;21.10;60.80
35363;DHT22;21463;47.480;8.214;2023-08-06T02:44:33;21.10;60.70
35363;DHT22;21463;47.480;8.214;2023-08-06T02:45:38;21.10;60.70
35363;DHT22;21463;47.480;8.214;2023-08-06T02:46:40;21.10;60.70
35363;DHT22;21463;47.480;8.214;2023-08-06T02:47:44;21.10;60.70
35363;DHT22;21463;47.480;8.214;2023-08-06T02:48:49;21.10;60.70
35363;DHT22;21463;47.480;8.214;2023-08-06T02:49:52;21.10;60.60
35363;DHT22;21463;47.480;8.214;2023-08-06T02:50:59;21.10;60.60
35363;DHT22;21463;47.480;8.214;2023-08-06T02:52:03;21.10;60.60
35363;DHT22;21463;47.480;8.214;2023-08-06T02:53:06;21.10;60.70
35363;DHT22;21463;47.480;8.214;2023-08-06T02:54:08;21.10;60.60
35363;DHT22;21463;47.480;8.214;2023-08-06T02:55:12;21.10;60.60
35363;DHT22;21463;47.480;8.214;2023-08-06T02:56:18;21.10;60.60
35363;DHT22;21463;47.480;8.214;2023-08-06T02:57:35;21.10;60.50
35363;DHT22;21463;47.480;8.214;2023-08-06T02:58:38;21.20;60.50
35363;DHT22;21463;47.480;8.214;2023-08-06T02:59:52;21.10;60.50
35363;DHT22;21463;47.480;8.214;2023-08-06T03:01:00;21.20;60.50
35363;DHT22;21463;47.480;8.214;2023-08-06T03:02:07;21.10;60.40
35363;DHT22;21463;47.480;8.214;2023-08-06T03:03:31;21.10;60.40
35363;DHT22;21463;47.480;8.214;2023-08-06T03:04:36;21.10;60.40
35363;DHT22;21463;47.480;8.214;2023-08-06T03:05:40;21.10;60.40
35363;DHT22;21463;47.480;8.214;2023-08-06T03:06:43;21.10;60.40
35363;DHT22;21463;47.480;8.214;2023-08-06T03:07:46;21.10;60.40
35363;DHT22;21463;47.480;8.214;2023-08-06T03:08:55;21.10;60.30
35363;DHT22;21463;47.480;8.214;2023-08-06T03:10:00;21.10;60.30
35363;DHT22;21463;47.480;8.214;2023-08-06T03:11:05;21.10;60.30
35363;DHT22;21463;47.480;8.214;2023-08-06T03:12:08;21.10;60.30
35363;DHT22;21463;47.480;8.214;2023-08-06T03:13:10;21.10;60.30
35363;DHT22;21463;47.480;8.214;2023-08-06T03:14:12;21.10;60.30
35363;DHT22;21463;47.480;8.214;2023-08-06T03:15:15;21.10;60.20
35363;DHT22;21463;47.480;8.214;2023-08-06T03:16:18;21.10;60.20
35363;DHT22;21463;47.480;8.214;2023-08-06T03:17:21;21.10;60.20
35363;DHT22;21463;47.480;8.214;2023-08-06T03:18:23;21.10;60.20
35363;DHT22;21463;47.480;8.214;2023-08-06T03:19:26;21.10;60.20
35363;DHT22;21463;47.480;8.214;2023-08-06T03:20:30;21.10;60.20
35363;DHT22;21463;47.480;8.214;2023-08-06T03:21:34;21.10;60.10
35363;DHT22;21463;47.480;8.214;2023-08-06T03:22:38;21.10;60.10
35363;DHT22;21463;47.480;8.214;2023-08-06T03:23:42;21.10;60.10
35363;DHT22;21463;47.480;8.214;2023-08-06T03:24:44;21.10;60.10
35363;DHT22;21463;47.480;8.214;2023-08-06T03:25:47;21.10;60.20
35363;DHT22;21463;47.480;8.214;2023-08-06T03:26:51;21.10;60.10
35363;DHT22;21463;47.480;8.214;2023-08-06T03:27:55;21.10;60.10
35363;DHT22;21463;47.480;8.214;2023-08-06T03:28:57;21.10;60.00
35363;DHT22;21463;47.480;8.214;2023-08-06T03:30:00;21.10;60.00
35363;DHT22;21463;47.480;8.214;2023-08-06T03:31:08;21.10;60.00
35363;DHT22;21463;47.480;8.214;2023-08-06T03:32:16;21.10;60.00
35363;DHT22;21463;47.480;8.214;2023-08-06T03:33:20;21.10;60.00
35363;DHT22;21463;47.480;8.214;2023-08-06T03:34:22;21.10;59.90
35363;DHT22;21463;47.480;8.214;2023-08-06T03:35:25;21.10;59.90
35363;DHT22;21463;47.480;8.214;2023-08-06T03:36:28;21.10;59.90
35363;DHT22;21463;47.480;8.214;2023-08-06T03:37:30;21.10;59.80
35363;DHT22;21463;47.480;8.214;2023-08-06T03:38:33;21.10;59.90
35363;DHT22;21463;47.480;8.214;2023-08-06T03:39:38;21.10;59.80
35363;DHT22;21463;47.480;8.214;2023-08-06T03:40:40;21.10;59.80
35363;DHT22;21463;47.480;8.214;2023-08-06T03:41:46;21.10;59.70
35363;DHT22;21463;47.480;8.214;2023-08-06T03:42:50;21.10;59.70
35363;DHT22;21463;47.480;8.214;2023-08-06T03:43:53;21.10;59.70
35363;DHT22;21463;47.480;8.214;2023-08-06T03:45:00;21.10;59.70
35363;DHT22;21463;47.480;8.214;2023-08-06T03:46:02;21.10;59.70
35363;DHT22;21463;47.480;8.214;2023-08-06T03:47:06;21.10;59.70
35363;DHT22;21463;47.480;8.214;2023-08-06T03:48:17;21.10;59.70
35363;DHT22;21463;47.480;8.214;2023-08-06T03:49:19;21.10;59.60
35363;DHT22;21463;47.480;8.214;2023-08-06T03:50:22;21.10;59.60
35363;DHT22;21463;47.480;8.214;2023-08-06T03:51:24;21.10;59.60
35363;DHT22;21463;47.480;8.214;2023-08-06T03:52:29;21.10;59.60
35363;DHT22;21463;47.480;8.214;2023-08-06T03:53:31;21.10;59.50
35363;DHT22;21463;47.480;8.214;2023-08-06T03:54:35;21.10;59.60
35363;DHT22;21463;47.480;8.214;2023-08-06T03:55:37;21.10;59.50
35363;DHT22;21463;47.480;8.214;2023-08-06T03:56:40;21.10;59.50
35363;DHT22;21463;47.480;8.214;2023-08-06T03:57:45;21.10;59.50
35363;DHT22;21463;47.480;8.214;2023-08-06T03:58:47;21.10;59.60
35363;DHT22;21463;47.480;8.214;2023-08-06T03:59:49;21.00;59.50
35363;DHT22;21463;47.480;8.214;2023-08-06T04:00:59;21.10;59.50
35363;DHT22;21463;47.480;8.214;2023-08-06T04:02:05;21.10;59.40
35363;DHT22;21463;47.480;8.214;2023-08-06T04:03:08;21.10;59.40
35363;DHT22;21463;47.480;8.214;2023-08-06T04:04:11;21.10;59.60
35363;DHT22;21463;47.480;8.214;2023-08-06T04:05:13;21.10;59.50
35363;DHT22;21463;47.480;8.214;2023-08-06T04:06:16;21.10;59.40
35363;DHT22;21463;47.480;8.214;2023-08-06T04:07:20;21.10;59.40
35363;DHT22;21463;47.480;8.214;2023-08-06T04:08:23;21.10;59.40
35363;DHT22;21463;47.480;8.214;2023-08-06T04:09:27;21.10;59.30
35363;DHT22;21463;47.480;8.214;2023-08-06T04:10:30;21.10;59.30
35363;DHT22;21463;47.480;8.214;2023-08-06T04:11:32;21.10;59.30
35363;DHT22;21463;47.480;8.214;2023-08-06T04:12:35;21.10;59.30
35363;DHT22;21463;47.480;8.214;2023-08-06T04:13:42;21.00;59.20
35363;DHT22;21463;47.480;8.214;2023-08-06T04:14:46;21.00;59.20
35363;DHT22;21463;47.480;8.214;2023-08-06T04:15:50;21.10;59.30
35363;DHT22;21463;47.480;8.214;2023-08-06T04:16:55;21.00;59.20
35363;DHT22;21463;47.480;8.214;2023-08-06T04:17:58;21.10;59.20
35363;DHT22;21463;47.480;8.214;2023-08-06T04:19:01;21.10;59.30
35363;DHT22;21463;47.480;8.214;2023-08-06T04:20:03;21.10;59.20
35363;DHT22;21463;47.480;8.214;2023-08-06T04:21:09;21.10;59.20
35363;DHT22;21463;47.480;8.214;2023-08-06T04:22:11;21.10;59.10
35363;DHT22;21463;47.480;8.214;2023-08-06T04:23:14;21.10;59.10
35363;DHT22;21463;47.480;8.214;2023-08-06T04:24:18;21.10;59.10
35363;DHT22;21463;47.480;8.214;2023-08-06T04:25:23;21.10;59.10
35363;DHT22;21463;47.480;8.214;2023-08-06T04:26:26;21.10;59.00
35363;DHT22;21463;47.480;8.214;2023-08-06T04:27:29;21.10;59.00
35363;DHT22;21463;47.480;8.214;2023-08-06T04:28:32;21.10;59.00
35363;DHT22;21463;47.480;8.214;2023-08-06T04:29:34;21.10;59.00
35363;DHT22;21463;47.480;8.214;2023-08-06T04:30:38;21.10;59.00
35363;DHT22;21463;47.480;8.214;2023-08-06T04:31:53;21.10;59.00
35363;DHT22;21463;47.480;8.214;2023-08-06T04:32:58;21.10;58.90
35363;DHT22;21463;47.480;8.214;2023-08-06T04:34:02;21.10;58.90
35363;DHT22;21463;47.480;8.214;2023-08-06T04:35:06;21.10;58.90
35363;DHT22;21463;47.480;8.214;2023-08-06T04:36:10;21.10;59.00
35363;DHT22;21463;47.480;8.214;2023-08-06T04:37:12;21.10;58.90
35363;DHT22;21463;47.480;8.214;2023-08-06T04:38:16;21.10;58.90
35363;DHT22;21463;47.480;8.214;2023-08-06T04:39:18;21.10;58.90
35363;DHT22;21463;47.480;8.214;2023-08-06T04:40:20;21.10;58.80
35363;DHT22;21463;47.480;8.214;2023-08-06T04:41:23;22.40;59.60
35363;DHT22;21463;47.480;8.214;2023-08-06T04:42:25;21.10;58.90
35363;DHT22;21463;47.480;8.214;2023-08-06T04:43:28;21.10;58.90
35363;DHT22;21463;47.480;8.214;2023-08-06T04:44:31;21.00;58.80
35363;DHT22;21463;47.480;8.214;2023-08-06T04:45:45;21.10;58.90
35363;DHT22;21463;47.480;8.214;2023-08-06T04:46:47;21.10;58.90
35363;DHT22;21463;47.480;8.214;2023-08-06T04:47:51;21.10;58.90
35363;DHT22;21463;47.480;8.214;2023-08-06T04:48:54;21.10;58.90
35363;DHT22;21463;47.480;8.214;2023-08-06T04:49:57;21.10;58.90
35363;DHT22;21463;47.480;8.214;2023-08-06T04:51:01;21.10;58.90
35363;DHT22;21463;47.480;8.214;2023-08-06T04:52:03;21.10;58.90
35363;DHT22;21463;47.480;8.214;2023-08-06T04:53:28;21.10;58.90
35363;DHT22;21463;47.480;8.214;2023-08-06T04:54:31;21.10;58.90
35363;DHT22;21463;47.480;8.214;2023-08-06T04:55:33;21.10;58.90
35363;DHT22;21463;47.480;8.214;2023-08-06T04:56:36;21.10;58.90
35363;DHT22;21463;47.480;8.214;2023-08-06T04:57:39;21.00;58.80
35363;DHT22;21463;47.480;8.214;2023-08-06T04:58:41;21.10;58.90
35363;DHT22;21463;47.480;8.214;2023-08-06T04:59:43;21.10;58.90
35363;DHT22;21463;47.480;8.214;2023-08-06T05:00:47;21.10;58.90
35363;DHT22;21463;47.480;8.214;2023-08-06T05:01:51;21.10;58.90
35363;DHT22;21463;47.480;8.214;2023-08-06T05:02:54;21.10;58.80
35363;DHT22;21463;47.480;8.214;2023-08-06T05:03:57;21.10;58.90
35363;DHT22;21463;47.480;8.214;2023-08-06T05:05:00;21.10;58.90
35363;DHT22;21463;47.480;8.214;2023-08-06T05:06:02;21.10;58.90
35363;DHT22;21463;47.480;8.214;2023-08-06T05:07:06;21.10;58.90
35363;DHT22;21463;47.480;8.214;2023-08-06T05:08:13;21.10;58.80
35363;DHT22;21463;47.480;8.214;2023-08-06T05:09:19;21.00;58.80
35363;DHT22;21463;47.480;8.214;2023-08-06T05:10:25;21.10;58.90
35363;DHT22;21463;47.480;8.214;2023-08-06T05:11:29;21.10;58.80
35363;DHT22;21463;47.480;8.214;2023-08-06T05:12:34;21.10;58.80
35363;DHT22;21463;47.480;8.214;2023-08-06T05:13:37;21.10;58.90
35363;DHT22;21463;47.480;8.214;2023-08-06T05:14:39;21.10;58.80
35363;DHT22;21463;47.480;8.214;2023-08-06T05:15:42;21.10;58.80
35363;DHT22;21463;47.480;8.214;2023-08-06T05:16:46;21.10;58.80
35363;DHT22;21463;47.480;8.214;2023-08-06T05:17:49;21.10;58.80
35363;DHT22;21463;47.480;8.214;2023-08-06T05:18:51;21.10;58.80
35363;DHT22;21463;47.480;8.214;2023-08-06T05:19:53;21.10;58.80
35363;DHT22;21463;47.480;8.214;2023-08-06T05:20:55;21.10;58.80
35363;DHT22;21463;47.480;8.214;2023-08-06T05:21:58;21.10;58.80
35363;DHT22;21463;47.480;8.214;2023-08-06T05:23:03;21.10;58.80
35363;DHT22;21463;47.480;8.214;2023-08-06T05:24:06;21.10;58.70
35363;DHT22;21463;47.480;8.214;2023-08-06T05:25:13;21.10;58.80
35363;DHT22;21463;47.480;8.214;2023-08-06T05:26:18;21.10;58.80
35363;DHT22;21463;47.480;8.214;2023-08-06T05:27:34;21.10;58.80
35363;DHT22;21463;47.480;8.214;2023-08-06T05:28:37;21.10;58.80
35363;DHT22;21463;47.480;8.214;2023-08-06T05:29:43;21.10;58.80
35363;DHT22;21463;47.480;8.214;2023-08-06T05:30:46;21.10;58.80
35363;DHT22;21463;47.480;8.214;2023-08-06T05:31:50;21.10;58.80
35363;DHT22;21463;47.480;8.214;2023-08-06T05:32:54;21.10;58.80
35363;DHT22;21463;47.480;8.214;2023-08-06T05:33:57;21.10;58.70
35363;DHT22;21463;47.480;8.214;2023-08-06T05:34:59;21.10;58.80
35363;DHT22;21463;47.480;8.214;2023-08-06T05:36:03;21.10;58.80
35363;DHT22;21463;47.480;8.214;2023-08-06T05:37:05;21.10;58.80
35363;DHT22;21463;47.480;8.214;2023-08-06T05:38:08;21.10;58.80
35363;DHT22;21463;47.480;8.214;2023-08-06T05:39:10;21.10;58.80
35363;DHT22;21463;47.480;8.214;2023-08-06T05:40:20;21.10;58.80
35363;DHT22;21463;47.480;8.214;2023-08-06T05:41:23;21.10;58.80
35363;DHT22;21463;47.480;8.214;2023-08-06T05:42:27;21.10;58.80
35363;DHT22;21463;47.480;8.214;2023-08-06T05:43:30;21.10;58.80
35363;DHT22;21463;47.480;8.214;2023-08-06T05:44:37;21.10;58.80
35363;DHT22;21463;47.480;8.214;2023-08-06T05:45:44;21.10;58.80
35363;DHT22;21463;47.480;8.214;2023-08-06T05:46:48;21.10;58.80
35363;DHT22;21463;47.480;8.214;2023-08-06T05:47:51;21.10;58.80
35363;DHT22;21463;47.480;8.214;2023-08-06T05:48:56;21.10;58.80
35363;DHT22;21463;47.480;8.214;2023-08-06T05:49:59;21.10;58.80
35363;DHT22;21463;47.480;8.214;2023-08-06T05:51:02;21.10;58.80
35363;DHT22;21463;47.480;8.214;2023-08-06T05:52:05;21.10;58.80
35363;DHT22;21463;47.480;8.214;2023-08-06T05:53:10;21.10;58.80
35363;DHT22;21463;47.480;8.214;2023-08-06T05:54:12;21.10;58.80
35363;DHT22;21463;47.480;8.214;2023-08-06T05:55:15;21.10;58.80
35363;DHT22;21463;47.480;8.214;2023-08-06T05:56:17;21.10;58.80
35363;DHT22;21463;47.480;8.214;2023-08-06T05:57:20;21.10;58.80
35363;DHT22;21463;47.480;8.214;2023-08-06T05:58:23;21.10;58.80
35363;DHT22;21463;47.480;8.214;2023-08-06T05:59:27;21.10;58.70
35363;DHT22;21463;47.480;8.214;2023-08-06T06:00:30;21.10;58.70
35363;DHT22;21463;47.480;8.214;2023-08-06T06:01:34;21.10;58.70
35363;DHT22;21463;47.480;8.214;2023-08-06T06:02:39;21.10;58.70
35363;DHT22;21463;47.480;8.214;2023-08-06T06:03:42;21.10;58.70
35363;DHT22;21463;47.480;8.214;2023-08-06T06:04:46;21.10;58.80
35363;DHT22;21463;47.480;8.214;2023-08-06T06:05:48;21.10;58.70
35363;DHT22;21463;47.480;8.214;2023-08-06T06:06:52;21.10;58.70
35363;DHT22;21463;47.480;8.214;2023-08-06T06:07:56;21.10;58.70
35363;DHT22;21463;47.480;8.214;2023-08-06T06:08:59;21.00;58.70
35363;DHT22;21463;47.480;8.214;2023-08-06T06:10:02;21.10;58.70
35363;DHT22;21463;47.480;8.214;2023-08-06T06:11:06;21.10;58.70
35363;DHT22;21463;47.480;8.214;2023-08-06T06:12:11;21.10;58.70
35363;DHT22;21463;47.480;8.214;2023-08-06T06:13:16;21.10;58.70
35363;DHT22;21463;47.480;8.214;2023-08-06T06:14:18;21.10;58.70
35363;DHT22;21463;47.480;8.214;2023-08-06T06:15:21;21.10;59.30
35363;DHT22;21463;47.480;8.214;2023-08-06T06:16:23;21.10;58.60
35363;DHT22;21463;47.480;8.214;2023-08-06T06:17:28;21.10;58.70
35363;DHT22;21463;47.480;8.214;2023-08-06T06:18:36;21.10;58.70
35363;DHT22;21463;47.480;8.214;2023-08-06T06:19:38;21.10;58.70
35363;DHT22;21463;47.480;8.214;2023-08-06T06:20:42;21.10;58.70
35363;DHT22;21463;47.480;8.214;2023-08-06T06:21:44;21.10;58.70
35363;DHT22;21463;47.480;8.214;2023-08-06T06:22:47;21.10;58.70
35363;DHT22;21463;47.480;8.214;2023-08-06T06:23:50;21.10;58.70
35363;DHT22;21463;47.480;8.214;2023-08-06T06:24:53;21.10;58.80
35363;DHT22;21463;47.480;8.214;2023-08-06T06:25:57;21.10;58.70
35363;DHT22;21463;47.480;8.214;2023-08-06T06:27:00;21.10;58.70
35363;DHT22;21463;47.480;8.214;2023-08-06T06:28:02;21.10;58.60
35363;DHT22;21463;47.480;8.214;2023-08-06T06:29:06;21.10;58.60
35363;DHT22;21463;47.480;8.214;2023-08-06T06:30:10;21.10;58.60
35363;DHT22;21463;47.480;8.214;2023-08-06T06:31:16;21.10;58.60
35363;DHT22;21463;47.480;8.214;2023-08-06T06:32:22;21.10;58.60
35363;DHT22;21463;47.480;8.214;2023-08-06T06:33:27;21.00;58.60
35363;DHT22;21463;47.480;8.214;2023-08-06T06:34:32;21.10;58.60
35363;DHT22;21463;47.480;8.214;2023-08-06T06:35:35;21.10;58.70
35363;DHT22;21463;47.480;8.214;2023-08-06T06:36:37;21.10;58.60
35363;DHT22;21463;47.480;8.214;2023-08-06T06:37:39;21.10;58.60
35363;DHT22;21463;47.480;8.214;2023-08-06T06:38:42;21.10;58.60
35363;DHT22;21463;47.480;8.214;2023-08-06T06:39:44;21.10;58.60
35363;DHT22;21463;47.480;8.214;2023-08-06T06:40:54;21.10;58.60
35363;DHT22;21463;47.480;8.214;2023-08-06T06:41:58;21.00;58.50
35363;DHT22;21463;47.480;8.214;2023-08-06T06:43:10;21.10;58.60
35363;DHT22;21463;47.480;8.214;2023-08-06T06:44:13;21.10;58.60
35363;DHT22;21463;47.480;8.214;2023-08-06T06:45:15;21.10;58.60
35363;DHT22;21463;47.480;8.214;2023-08-06T06:46:18;21.10;58.50
35363;DHT22;21463;47.480;8.214;2023-08-06T06:47:20;21.10;58.60
35363;DHT22;21463;47.480;8.214;2023-08-06T06:48:27;21.10;58.50
35363;DHT22;21463;47.480;8.214;2023-08-06T06:49:30;21.10;58.60
35363;DHT22;21463;47.480;8.214;2023-08-06T06:50:33;21.00;58.50